Ana Sayfa
METAR-TAF:

METAR-TAF

Havaalanları :

Bata, Ekvator Ginesi

Enlem: 1-54-15N, Boylam: 9-48-15E, yükseklik: 4 m

Güncel hava durumu gözlemi

Rapor saat 04:00 UTC de 18 saat ve 31 dakika önce yapıldı.
Rüzgar güneydan 7 kt
Sıcaklık 26°C
Nem 89%
Basınç 1011 hPa
Görüş mesafesi: 9000 m
1000 ft yükseklikte parçalı çok bulutlu
2000 ft yükseklikte az bulutlu, Kümülonimbus.
gök gürültülü fırtına,

METAR: FGBT 160400Z 17007KT 9000 TS BKN010 FEW020CB 26/24 Q1011

Saat: 23:31 (22:31 UTC)

Tahmin

Rapor saat 17:00 UTC de 5 saat ve 31 dakika önce yapıldı.
Ayın 16'si saat 18 UTC'den ayın 17'si saat 18 UTC'ye kadar geçerli Tahmin
Rüzgar güneybatıdan 7 kt
Görüş mesafesi 10 km veya daha fazla
1000 ft yükseklikte parçalı bulutlu
Geçici
ayın 17'si saat 03 UTC'den ayın 17'si saat 09 UTC'ye kadar
800 ft yükseklikte parçalı çok bulutlu
1600 ft yükseklikte az bulutlu, Kümülonimbus.
gök gürültülü fırtına,

TAF: FGBT 161700Z 1618/1718 22007KT 9999 SCT010 TEMPO 1703/1709 TS BKN008 FEW016CB

4.000'den fazla havaalanı için hava durumu gözlemleri ve tahminleri (METAR ve TAF raporları).

Kullanılabilir istasyonlar harita üzerinde sarı ve kırmızı noktalarla gösterilir.

İstasyonun adını görmek için fareyi noktanın üzerinde gezdirin.

Sonrasında hava gözlem ve tahminlerini görmek için tıklayın.

Haritayı değiştirmek için: yaklaştırmak için siyah artı işaretli yeşil düğmeye ve uzaklaştırmak için de eksi işaretli düğmeye hızla tıklayın; bitişik haritalar için yeşil okları kullanın.


METAR-TAF: